Time;durP1;ratioP1;P1;durP2;ratioP2;P2;SDS_P1;SDS_P2;PMS_P1;PMS_P2;Temp;Humidity;BMP_temperature;BMP_pressure;BME280_temperature;BME280_humidity;BME280_pressure;Samples;Min_cycle;Max_cycle;Signal;HPM_P1;HPM_P2
2023/01/19 00:02:17;;;;;;;11.93;7.28;;;;;;;3.06;92.28;99280.97;8287321;28;20403;-57
2023/01/19 00:06:18;;;;;;;12.68;6.78;;;;;;;3.11;92.10;99285.94;8289059;28;20060;-57
2023/01/19 00:10:18;;;;;;;13.68;7.30;;;;;;;3.15;91.77;99280.22;8289459;28;20045;-58
2023/01/19 00:14:19;;;;;;;12.25;7.13;;;;;;;3.26;91.43;99285.53;8288895;28;20117;-58
2023/01/19 00:18:19;;;;;;;13.55;5.72;;;;;;;3.41;90.11;99286.94;8289089;28;20474;-57
2023/01/19 00:22:20;;;;;;;10.43;5.55;;;;;;;3.45;89.78;99284.88;8289473;28;20049;-57
2023/01/19 00:26:21;;;;;;;11.98;5.45;;;;;;;3.38;90.10;99283.66;8287855;28;20052;-56
2023/01/19 00:30:21;;;;;;;8.10;5.28;;;;;;;3.43;89.58;99287.69;8288966;28;20065;-58
2023/01/19 00:34:22;;;;;;;10.77;4.90;;;;;;;3.46;89.11;99281.22;8288860;28;20045;-57
2023/01/19 00:38:22;;;;;;;8.95;5.78;;;;;;;3.34;89.39;99280.41;8293585;28;20419;-58
2023/01/19 00:42:54;;;;;;;9.00;5.35;;;;;;;3.30;89.85;99281.63;8295485;28;20077;-58
2023/01/19 00:46:43;;;;;;;10.65;5.40;;;;;;;3.29;89.88;99285.28;8294041;28;20049;-56
2023/01/19 00:50:43;;;;;;;10.75;5.72;;;;;;;3.21;90.08;99268.19;8292150;28;20121;-58
2023/01/19 00:54:44;;;;;;;6.40;4.65;;;;;;;3.19;90.23;99279.00;8292507;28;20041;-58
2023/01/19 00:58:44;;;;;;;9.25;4.75;;;;;;;3.17;90.50;99278.25;8292828;28;20046;-56
2023/01/19 01:02:47;;;;;;;11.05;5.40;;;;;;;3.14;90.75;99275.84;8294614;28;20458;-58
2023/01/19 01:06:48;;;;;;;15.02;5.45;;;;;;;3.09;90.85;99270.03;8294179;28;20042;-58
2023/01/19 01:10:49;;;;;;;7.95;5.35;;;;;;;3.03;91.32;99275.03;8294849;28;20048;-58
2023/01/19 01:14:49;;;;;;;8.55;4.88;;;;;;;2.99;91.33;99282.41;8292977;28;20034;-57
2023/01/19 01:18:50;;;;;;;8.02;5.32;;;;;;;3.02;91.43;99282.16;8293897;28;20088;-58
2023/01/19 01:22:52;;;;;;;11.60;5.78;;;;;;;3.00;91.48;99288.59;8293408;28;20038;-53
2023/01/19 01:26:52;;;;;;;17.02;5.85;;;;;;;2.95;91.56;99280.09;8293369;28;20033;-54
2023/01/19 01:30:54;;;;;;;11.27;5.95;;;;;;;2.91;91.89;99284.88;8293820;28;20038;-56
2023/01/19 01:34:55;;;;;;;10.23;6.55;;;;;;;2.88;92.28;99297.59;8293707;28;20041;-58
2023/01/19 01:38:56;;;;;;;10.73;6.50;;;;;;;2.87;92.47;99302.06;8293017;28;20082;-54
2023/01/19 01:42:56;;;;;;;12.13;6.22;;;;;;;2.98;92.32;99310.09;8294004;28;20057;-55
2023/01/19 01:46:57;;;;;;;11.65;6.53;;;;;;;3.12;92.01;99304.50;8291693;28;20041;-55
2023/01/19 01:51:23;;;;;;;15.02;7.40;;;;;;;3.21;90.93;99306.44;8292710;28;20042;-51
2023/01/19 01:55:26;;;;;;;11.10;6.43;;;;;;;3.24;90.68;99300.84;8291977;28;20042;-56
2023/01/19 01:59:37;;;;;;;11.73;6.70;;;;;;;3.16;91.21;99305.94;8292996;28;20060;-54
2023/01/19 02:03:38;;;;;;;10.88;6.75;;;;;;;3.09;91.46;99298.53;8292055;28;20453;-54
2023/01/19 02:13:16;;;;;;;12.18;6.78;;;;;;;3.06;91.96;99298.78;8293566;28;20052;-57
2023/01/19 02:16:36;;;;;;;13.05;7.00;;;;;;;3.05;91.86;99297.94;8295591;28;20046;-56
2023/01/19 02:20:39;;;;;;;14.05;7.88;;;;;;;3.01;92.17;99300.97;8295505;28;20041;-54
2023/01/19 02:24:40;;;;;;;14.80;7.60;;;;;;;2.93;92.62;99298.91;8296426;28;20136;-57
2023/01/19 02:28:45;;;;;;;10.52;6.68;;;;;;;2.90;92.98;99299.16;8294739;28;20474;-57
2023/01/19 02:32:45;;;;;;;11.27;6.63;;;;;;;2.86;92.83;99299.53;8295433;28;20042;-56
2023/01/19 02:36:53;;;;;;;14.20;7.80;;;;;;;2.89;93.23;99297.47;8294921;28;20057;-56
2023/01/19 02:40:58;;;;;;;16.45;7.38;;;;;;;2.87;93.17;99293.25;8294749;28;20046;-55
2023/01/19 02:44:58;;;;;;;12.23;7.05;;;;;;;2.85;93.32;99295.16;8295134;28;20125;-55
2023/01/19 02:49:00;;;;;;;14.25;7.97;;;;;;;2.84;93.13;99293.47;8294882;28;20042;-56
2023/01/19 02:53:14;;;;;;;11.90;7.60;;;;;;;2.82;93.43;99290.94;8295493;28;20042;-54
2023/01/19 02:57:28;;;;;;;9.75;6.63;;;;;;;2.85;92.76;99298.69;8294342;28;20034;-56
2023/01/19 03:01:59;;;;;;;15.23;7.30;;;;;;;2.91;92.45;99295.53;8294297;28;20077;-57
2023/01/19 03:06:08;;;;;;;10.10;6.60;;;;;;;2.89;92.69;99292.13;8294326;28;20099;-56
2023/01/19 03:10:36;;;;;;;13.20;6.75;;;;;;;2.91;92.51;99284.00;8294057;28;20046;-56
2023/01/19 03:14:41;;;;;;;11.30;6.55;;;;;;;2.83;92.42;99289.97;8289227;28;20497;-48
2023/01/19 03:18:46;;;;;;;10.25;6.53;;;;;;;2.74;92.78;99293.34;8293807;28;20706;-50
2023/01/19 03:22:53;;;;;;;9.00;6.30;;;;;;;2.77;92.72;99281.63;8293827;28;20410;-56
2023/01/19 03:26:59;;;;;;;9.27;6.45;;;;;;;2.75;92.84;99300.41;8294128;28;20096;-56
2023/01/19 03:31:07;;;;;;;11.98;6.53;;;;;;;2.70;93.21;99297.25;8293039;28;20422;-56
2023/01/19 03:35:13;;;;;;;13.55;6.03;;;;;;;2.65;92.94;99301.25;8292226;28;20054;-56
2023/01/19 03:39:20;;;;;;;11.57;6.72;;;;;;;2.73;92.75;99306.81;8293294;28;20067;-56
2023/01/19 03:43:22;;;;;;;11.88;6.25;;;;;;;2.67;92.96;99301.97;8294209;28;20037;-56
2023/01/19 03:47:24;;;;;;;18.88;6.55;;;;;;;2.73;92.76;99299.66;8292927;28;20403;-56
2023/01/19 03:51:25;;;;;;;12.88;6.03;;;;;;;2.77;92.62;99303.78;8293469;28;20065;-52
2023/01/19 03:55:25;;;;;;;10.45;5.55;;;;;;;2.74;92.79;99297.88;8292278;28;20525;-52
2023/01/19 03:59:26;;;;;;;10.10;5.32;;;;;;;2.82;92.51;99312.28;8291982;28;20470;-51
2023/01/19 04:03:27;;;;;;;10.40;4.78;;;;;;;2.89;91.97;99313.50;8292908;28;20757;-53
2023/01/19 04:07:27;;;;;;;10.48;5.40;;;;;;;2.93;91.45;99317.59;8292898;28;20045;-53
2023/01/19 04:11:28;;;;;;;13.00;6.00;;;;;;;2.96;91.70;99319.19;8291567;28;20038;-51
2023/01/19 04:15:29;;;;;;;10.73;5.22;;;;;;;3.04;90.47;99322.09;8291230;28;20042;-52
2023/01/19 04:19:30;;;;;;;9.88;5.00;;;;;;;3.19;90.10;99316.38;8292944;28;20045;-52
2023/01/19 04:23:31;;;;;;;10.38;4.60;;;;;;;3.32;89.17;99319.75;8292694;28;20046;-51
2023/01/19 04:27:31;;;;;;;11.70;4.93;;;;;;;3.32;89.28;99319.75;8292445;28;20038;-52
2023/01/19 04:31:34;;;;;;;8.68;5.40;;;;;;;3.30;89.41;99313.66;8293185;28;20033;-49
2023/01/19 04:35:35;;;;;;;10.13;5.10;;;;;;;3.37;89.45;99320.22;8276753;28;20056;-51
2023/01/19 04:39:35;;;;;;;11.93;5.63;;;;;;;3.37;89.31;99309.53;8260164;28;20510;-52
2023/01/19 04:43:35;;;;;;;13.02;5.00;;;;;;;3.39;89.48;99312.09;8260133;28;20130;-52
2023/01/19 04:47:36;;;;;;;13.73;4.85;;;;;;;3.39;89.75;99318.25;8260061;28;20117;-51
2023/01/19 04:51:36;;;;;;;12.50;5.22;;;;;;;3.55;89.62;99308.03;8260076;28;20030;-50
2023/01/19 04:55:37;;;;;;;13.02;5.70;;;;;;;3.64;89.50;99315.28;8276636;28;20038;-49
2023/01/19 04:59:38;;;;;;;14.45;5.25;;;;;;;3.83;88.68;99318.13;8290945;28;20046;-53
2023/01/19 05:03:39;;;;;;;12.52;5.53;;;;;;;3.89;88.85;99311.41;8290037;28;20427;-52
2023/01/19 05:07:39;;;;;;;10.63;5.82;;;;;;;3.94;89.05;99320.75;8291615;28;20527;-51
2023/01/19 05:11:40;;;;;;;13.38;6.53;;;;;;;3.96;89.31;99316.13;8292278;28;20042;-52
2023/01/19 05:15:40;;;;;;;14.27;6.15;;;;;;;3.97;89.49;99323.16;8290447;28;20042;-51
2023/01/19 05:19:41;;;;;;;16.15;7.00;;;;;;;3.98;89.86;99321.34;8291444;28;20125;-51
2023/01/19 05:23:41;;;;;;;17.98;7.47;;;;;;;4.05;89.50;99328.72;8293299;28;20046;-51
2023/01/19 05:27:43;;;;;;;22.88;8.43;;;;;;;4.03;89.83;99330.66;8283048;28;20064;-52
2023/01/19 05:31:43;;;;;;;15.60;7.53;;;;;;;3.99;90.84;99334.59;8296980;28;20034;-49
2023/01/19 05:35:44;;;;;;;26.05;9.05;;;;;;;3.93;91.79;99334.22;8296093;28;20049;-51
2023/01/19 05:39:44;;;;;;;19.55;9.50;;;;;;;3.89;92.51;99344.34;8295392;28;20125;-52
2023/01/19 05:43:45;;;;;;;20.23;9.57;;;;;;;3.87;93.23;99346.28;8279891;28;20037;-52
2023/01/19 05:47:45;;;;;;;31.55;12.05;;;;;;;3.82;94.20;99353.84;8291116;28;20042;-50
2023/01/19 05:51:46;;;;;;;20.83;10.07;;;;;;;3.71;96.13;99361.03;8293293;28;20049;-53
2023/01/19 05:55:46;;;;;;;24.83;11.68;;;;;;;3.40;98.93;99352.03;8291854;28;20073;-48
2023/01/19 05:59:47;;;;;;;27.13;11.48;;;;;;;3.08;100.00;99355.59;8287478;28;20048;-52
2023/01/19 06:03:47;;;;;;;24.73;12.10;;;;;;;2.83;100.00;99361.16;8287577;28;20062;-52
2023/01/19 06:07:48;;;;;;;29.98;13.13;;;;;;;2.67;100.00;99364.19;8282199;28;20034;-51
2023/01/19 06:11:48;;;;;;;29.13;13.50;;;;;;;2.51;100.00;99363.69;8260406;28;20035;-51
2023/01/19 06:15:55;;;;;;;33.40;14.75;;;;;;;2.47;100.00;99370.19;8262365;28;20050;-51
2023/01/19 06:19:56;;;;;;;35.83;14.23;;;;;;;2.42;100.00;99367.06;8290832;28;20077;-51
2023/01/19 06:23:57;;;;;;;40.92;17.05;;;;;;;2.43;100.00;99363.41;8283921;28;20396;-52
2023/01/19 06:27:58;;;;;;;39.00;15.07;;;;;;;2.46;100.00;99373.84;8283177;28;20033;-53
2023/01/19 06:31:58;;;;;;;40.10;15.02;;;;;;;2.43;100.00;99382.06;8255823;28;20042;-53
2023/01/19 06:35:59;;;;;;;37.55;15.75;;;;;;;2.42;100.00;99393.72;8287555;28;20415;-52
2023/01/19 06:39:59;;;;;;;40.72;15.75;;;;;;;2.40;100.00;99397.44;8291720;28;20093;-50
2023/01/19 06:44:01;;;;;;;41.53;17.05;;;;;;;2.40;100.00;99395.63;8286975;28;20053;-53
2023/01/19 06:48:03;;;;;;;46.28;17.33;;;;;;;2.41;100.00;99397.34;8261559;28;20447;-53
2023/01/19 06:52:03;;;;;;;41.63;18.88;;;;;;;2.40;100.00;99406.31;8272866;28;20042;-53
2023/01/19 06:56:05;;;;;;;46.83;18.00;;;;;;;2.35;100.00;99405.78;8287343;28;20050;-49
2023/01/19 07:00:07;;;;;;;42.55;17.67;;;;;;;2.37;100.00;99406.53;8288722;28;20037;-50
2023/01/19 07:04:09;;;;;;;34.75;16.73;;;;;;;2.37;100.00;99411.00;8281012;28;20045;-52
2023/01/19 07:08:09;;;;;;;39.85;17.02;;;;;;;2.40;100.00;99406.31;8300301;28;20088;-51
2023/01/19 07:12:10;;;;;;;40.97;18.35;;;;;;;2.46;100.00;99427.19;8287940;28;20037;-51
2023/01/19 07:16:11;;;;;;;45.17;18.60;;;;;;;2.47;100.00;99436.88;8290634;28;20062;-50
2023/01/19 07:20:13;;;;;;;47.30;18.77;;;;;;;2.46;100.00;99447.66;8291098;28;20498;-54
2023/01/19 07:24:13;;;;;;;45.25;18.13;;;;;;;2.49;100.00;99448.28;8290861;28;20490;-51
2023/01/19 07:28:15;;;;;;;48.47;18.98;;;;;;;2.49;100.00;99450.94;8290474;28;20129;-53
2023/01/19 07:32:15;;;;;;;49.97;19.13;;;;;;;2.49;100.00;99442.94;8291024;28;20467;-53
2023/01/19 07:36:16;;;;;;;46.10;19.35;;;;;;;2.49;100.00;99442.94;8289443;28;20112;-53
2023/01/19 07:40:17;;;;;;;48.20;20.33;;;;;;;2.53;100.00;99435.56;8305702;28;20052;-52
2023/01/19 07:44:17;;;;;;;50.10;19.88;;;;;;;2.55;100.00;99426.47;8290521;28;20505;-52
2023/01/19 07:48:18;;;;;;;50.35;19.85;;;;;;;2.59;100.00;99432.44;8289585;28;20034;-54
2023/01/19 07:52:18;;;;;;;43.17;18.80;;;;;;;2.61;100.00;99458.03;8290261;28;20038;-53
2023/01/19 07:56:19;;;;;;;49.42;20.02;;;;;;;2.61;100.00;99452.69;8289913;28;20048;-53
2023/01/19 08:00:23;;;;;;;48.10;18.85;;;;;;;2.64;100.00;99446.25;8289618;28;20048;-54
2023/01/19 08:04:26;;;;;;;39.47;17.77;;;;;;;2.65;100.00;99454.13;8263911;28;20049;-54
2023/01/19 08:08:28;;;;;;;46.15;19.55;;;;;;;2.71;100.00;99467.00;8289660;28;20426;-53
2023/01/19 08:12:29;;;;;;;38.53;17.38;;;;;;;2.74;100.00;99469.44;8289495;28;20034;-53
2023/01/19 08:16:29;;;;;;;39.45;17.30;;;;;;;2.71;100.00;99477.69;8289253;28;20048;-53
2023/01/19 08:20:31;;;;;;;39.90;16.27;;;;;;;2.76;100.00;99483.53;8289288;28;20065;-54
2023/01/19 08:24:31;;;;;;;39.10;16.33;;;;;;;2.83;100.00;99490.09;8288863;28;20038;-57
2023/01/19 08:28:32;;;;;;;37.55;17.17;;;;;;;2.85;100.00;99496.19;8289521;28;20095;-57
2023/01/19 08:32:32;;;;;;;38.03;16.80;;;;;;;2.88;100.00;99503.94;8289183;28;20041;-56
2023/01/19 08:36:33;;;;;;;37.58;16.67;;;;;;;2.94;100.00;99513.28;8288313;28;20046;-57
2023/01/19 08:40:36;;;;;;;34.28;15.85;;;;;;;2.95;100.00;99515.84;8304575;28;20049;-57
2023/01/19 08:44:36;;;;;;;38.15;16.98;;;;;;;3.01;100.00;99519.84;8288587;28;20041;-57
2023/01/19 08:48:36;;;;;;;37.28;16.95;;;;;;;3.03;100.00;99526.78;8289200;28;20042;-56
2023/01/19 08:52:37;;;;;;;44.00;18.35;;;;;;;3.08;100.00;99532.63;8303880;28;20046;-55
2023/01/19 08:56:37;;;;;;;43.45;19.13;;;;;;;3.14;100.00;99534.81;8288795;28;20084;-57
2023/01/19 09:00:39;;;;;;;36.28;17.95;;;;;;;3.21;100.00;99538.72;8294769;28;20056;-57
2023/01/19 09:04:39;;;;;;;39.15;19.17;;;;;;;3.26;100.00;99538.38;8294018;28;20049;-57
2023/01/19 09:08:39;;;;;;;37.30;18.35;;;;;;;3.29;100.00;99549.66;8295526;28;20069;-57
2023/01/19 09:12:40;;;;;;;44.00;18.30;;;;;;;3.28;100.00;99547.09;8294979;28;20038;-56
2023/01/19 09:16:41;;;;;;;43.00;19.70;;;;;;;3.28;100.00;99553.31;8294299;28;20121;-56
2023/01/19 09:20:43;;;;;;;41.78;19.00;;;;;;;3.33;100.00;99555.63;8294629;28;20041;-55
2023/01/19 09:24:43;;;;;;;38.03;17.90;;;;;;;3.28;100.00;99555.13;8294287;28;20539;-55
2023/01/19 09:28:43;;;;;;;43.05;18.70;;;;;;;3.30;100.00;99562.03;8294873;28;20446;-55
2023/01/19 09:32:44;;;;;;;51.63;20.15;;;;;;;3.32;100.00;99567.25;8293115;28;20042;-57
2023/01/19 09:36:45;;;;;;;42.72;19.15;;;;;;;3.34;100.00;99568.84;8290677;28;20049;-55
2023/01/19 09:40:53;;;;;;;49.45;19.88;;;;;;;3.35;100.00;99573.22;8283001;28;20100;-51
2023/01/19 09:44:53;;;;;;;44.65;20.02;;;;;;;3.42;100.00;99569.09;8260009;28;20097;-57
2023/01/19 09:48:57;;;;;;;46.85;19.15;;;;;;;3.47;100.00;99574.94;8276826;28;20047;-57
2023/01/19 09:53:12;;;;;;;45.95;19.23;;;;;;;3.49;100.00;99580.16;8260980;28;20120;-56
2023/01/19 09:57:13;;;;;;;45.40;19.30;;;;;;;3.53;100.00;99587.81;8290615;28;20049;-56
2023/01/19 10:01:25;;;;;;;50.55;20.55;;;;;;;3.61;100.00;99596.09;8293256;28;20041;-57
2023/01/19 10:05:49;;;;;;;50.53;19.45;;;;;;;3.68;100.00;99585.75;8293218;28;20045;-57
2023/01/19 10:09:55;;;;;;;;;;;;;;;3.73;100.00;99595.13;8293438;28;20053;-56
2023/01/19 10:13:57;;;;;;;44.85;18.25;;;;;;;3.76;100.00;99600.22;8292889;28;20003;-55
2023/01/19 10:18:21;;;;;;;50.55;20.15;;;;;;;3.87;100.00;99602.03;8292656;28;20133;-56
2023/01/19 10:22:23;;;;;;;;;;;;;;;4.00;100.00;99608.97;8292813;28;20034;-57
2023/01/19 10:26:35;;;;;;;51.03;19.02;;;;;;;4.20;100.00;99606.56;8307225;28;19917;-56
2023/01/19 10:30:36;;;;;;;41.78;18.42;;;;;;;4.30;100.00;99604.84;8292595;28;20057;-57
2023/01/19 10:34:37;;;;;;;40.67;17.63;;;;;;;4.22;100.00;99609.94;8291780;28;20038;-57
2023/01/19 10:38:37;;;;;;;50.47;18.40;;;;;;;4.49;100.00;99608.59;8291913;28;20072;-56
2023/01/19 10:42:40;;;;;;;43.42;19.17;;;;;;;6.09;92.91;99609.09;8291516;28;20030;-57
2023/01/19 10:46:44;;;;;;;37.70;16.83;;;;;;;7.03;86.21;99604.97;8291049;28;20384;-57
2023/01/19 10:50:45;;;;;;;34.45;15.85;;;;;;;5.71;89.03;99612.41;8292176;28;20072;-56
2023/01/19 10:54:47;;;;;;;44.47;15.50;;;;;;;4.95;93.69;99625.25;8289304;28;20827;-55
2023/01/19 10:58:47;;;;;;;35.05;15.77;;;;;;;4.67;96.68;99614.25;8298487;28;20483;-53
2023/01/19 11:02:49;;;;;;;40.10;15.25;;;;;;;4.59;97.86;99611.34;8290167;28;20410;-54
2023/01/19 11:06:50;;;;;;;43.78;16.58;;;;;;;4.62;98.11;99616.44;8291072;28;20045;-53
2023/01/19 11:10:54;;;;;;;44.85;16.83;;;;;;;4.91;97.70;99625.63;8290622;28;20045;-52
2023/01/19 11:14:56;;;;;;;35.08;14.85;;;;;;;5.32;94.54;99629.22;8290764;28;20041;-52
2023/01/19 11:19:00;;;;;;;31.30;15.45;;;;;;;5.18;95.84;99634.03;8290358;28;20104;-53
2023/01/19 11:23:06;;;;;;;43.65;16.63;;;;;;;5.50;95.99;99629.50;8290170;28;20042;-54
2023/01/19 11:27:07;;;;;;;36.72;17.13;;;;;;;6.41;90.61;99631.28;8289528;28;20050;-54
2023/01/19 11:31:17;;;;;;;37.17;14.90;;;;;;;7.16;87.04;99613.59;8290603;28;20038;-53
2023/01/19 11:35:38;;;;;;;32.40;13.48;;;;;;;8.11;83.52;99620.66;8289725;28;20459;-54
2023/01/19 11:39:48;;;;;;;33.20;14.38;;;;;;;8.79;79.55;99619.38;8290415;28;20041;-54
2023/01/19 11:43:53;;;;;;;34.17;14.27;;;;;;;9.58;76.76;99621.16;8290096;28;20038;-52
2023/01/19 11:47:55;;;;;;;32.45;13.00;;;;;;;9.79;75.24;99627.91;8288607;28;20044;-53
2023/01/19 11:52:03;;;;;;;31.48;13.15;;;;;;;9.85;75.56;99621.00;8288632;28;20128;-53
2023/01/19 11:56:09;;;;;;;27.52;13.20;;;;;;;10.28;73.50;99623.69;8289294;28;20045;-54
2023/01/19 12:00:24;;;;;;;29.77;13.63;;;;;;;10.47;72.60;99620.78;8290072;28;20499;-54
2023/01/19 12:04:32;;;;;;;29.58;13.48;;;;;;;10.13;71.85;99613.66;8257004;28;20034;-54
2023/01/19 12:08:38;;;;;;;34.17;12.80;;;;;;;9.99;73.99;99617.75;8257011;28;20598;-54
2023/01/19 12:12:40;;;;;;;30.48;13.52;;;;;;;8.66;78.33;99618.88;8269658;28;20063;-53
2023/01/19 12:16:42;;;;;;;33.42;13.98;;;;;;;9.56;75.34;99617.78;8289080;28;20042;-52
2023/01/19 12:20:49;;;;;;;30.85;14.70;;;;;;;9.48;74.74;99618.56;8280898;28;20488;-54
2023/01/19 12:25:14;;;;;;;28.90;13.88;;;;;;;8.84;76.94;99622.47;8274416;28;20542;-54
2023/01/19 12:29:18;;;;;;;31.25;14.35;;;;;;;9.19;77.34;99622.50;8288772;28;20030;-51
2023/01/19 12:33:28;;;;;;;39.67;14.48;;;;;;;9.11;77.51;99625.09;8282620;28;20045;-52
2023/01/19 12:37:35;;;;;;;34.03;12.30;;;;;;;8.86;76.78;99628.53;8270468;28;20499;-53
2023/01/19 12:41:38;;;;;;;46.55;16.88;;;;;;;8.78;78.05;99625.78;8292936;28;20119;-54
2023/01/19 12:45:39;;;;;;;35.92;13.63;;;;;;;7.98;79.86;99629.06;8293692;28;20038;-53
2023/01/19 12:49:44;;;;;;;32.25;14.20;;;;;;;7.35;82.63;99627.03;8276727;28;20597;-55
2023/01/19 12:53:52;;;;;;;35.13;14.52;;;;;;;7.07;83.25;99625.19;8295272;28;20053;-52
2023/01/19 13:11:15;;;;;;;28.35;14.57;;;;;;;6.97;84.15;99624.34;8316971;28;20377;-51
2023/01/19 13:15:34;;;;;;;30.95;13.45;;;;;;;6.40;87.27;99639.47;8286874;28;20111;-51
2023/01/19 13:19:42;;;;;;;27.10;14.00;;;;;;;6.20;88.29;99638.53;8309223;28;20513;-50
2023/01/19 13:28:00;;;;;;;25.95;13.35;;;;;;;5.91;90.05;99649.13;8345201;28;20487;-51
2023/01/19 13:32:03;;;;;;;31.17;13.18;;;;;;;5.70;90.10;99642.88;8324923;28;20033;-51
2023/01/19 13:36:17;;;;;;;27.83;12.55;;;;;;;5.69;91.12;99649.25;8314266;28;20142;-50
2023/01/19 13:40:37;;;;;;;31.30;12.55;;;;;;;5.67;91.56;99644.97;8317387;28;20038;-51
2023/01/19 13:44:45;;;;;;;27.77;11.43;;;;;;;5.45;90.25;99650.47;8345629;28;20120;-51
2023/01/19 13:48:57;;;;;;;28.85;12.63;;;;;;;5.41;91.52;99646.34;8338237;28;20037;-50
2023/01/19 13:52:58;;;;;;;27.20;11.55;;;;;;;5.35;91.25;99657.59;8346528;28;20040;-50
2023/01/19 13:56:59;;;;;;;26.05;11.30;;;;;;;5.29;91.18;99661.63;8347622;28;20191;-52
2023/01/19 14:00:59;;;;;;;21.80;11.02;;;;;;;5.26;90.78;99661.03;8342453;28;20041;-51
2023/01/19 14:05:23;;;;;;;22.35;11.55;;;;;;;5.24;91.30;99663.84;8338425;28;20468;-51
2023/01/19 14:09:23;;;;;;;26.10;11.30;;;;;;;5.26;91.25;99661.03;8345476;28;20402;-51
2023/01/19 14:13:28;;;;;;;19.77;10.68;;;;;;;5.23;90.50;99666.66;8343904;28;20083;-51
2023/01/19 14:17:29;;;;;;;23.67;11.00;;;;;;;5.18;91.02;99674.19;8345698;28;20254;-55
2023/01/19 14:21:41;;;;;;;24.55;10.23;;;;;;;5.22;90.67;99670.31;8347213;28;20112;-53
2023/01/19 14:25:43;;;;;;;16.63;9.55;;;;;;;5.22;89.43;99678.34;8345302;28;20037;-56
2023/01/19 14:29:46;;;;;;;18.63;10.00;;;;;;;5.29;89.23;99676.84;8333322;28;20526;-56
2023/01/19 14:33:49;;;;;;;19.60;10.07;;;;;;;5.31;88.72;99669.53;8346392;28;20029;-53
2023/01/19 14:37:51;;;;;;;21.83;10.27;;;;;;;5.37;89.46;99671.72;8331716;28;20399;-56
2023/01/19 14:41:53;;;;;;;23.40;9.82;;;;;;;5.39;89.34;99684.00;8324097;28;20499;-55
2023/01/19 14:45:55;;;;;;;19.92;8.60;;;;;;;5.29;88.89;99679.53;8322284;28;20095;-55
2023/01/19 14:50:00;;;;;;;17.83;8.25;;;;;;;5.24;88.38;99685.28;8324114;28;20038;-57
2023/01/19 14:54:01;;;;;;;13.35;7.10;;;;;;;5.18;88.65;99690.28;8308470;28;20122;-52
2023/01/19 14:58:09;;;;;;;19.05;8.88;;;;;;;5.09;88.93;99681.19;8307320;28;20061;-54
2023/01/19 15:02:09;;;;;;;23.85;9.40;;;;;;;5.03;89.16;99686.22;8308380;28;20047;-55
2023/01/19 15:06:15;;;;;;;15.90;7.82;;;;;;;4.97;88.27;99687.53;8308991;28;20043;-55
2023/01/19 15:10:21;;;;;;;23.83;9.80;;;;;;;4.99;88.77;99684.75;8309959;28;20064;-51
2023/01/19 15:14:21;;;;;;;19.85;10.25;;;;;;;4.99;90.10;99690.09;8312290;28;20479;-56
2023/01/19 15:18:25;;;;;;;16.08;8.10;;;;;;;4.96;89.67;99695.69;8297318;28;20403;-56
2023/01/19 15:22:28;;;;;;;23.40;10.73;;;;;;;4.91;90.42;99703.28;8312880;28;20041;-56
2023/01/19 15:26:28;;;;;;;22.60;10.52;;;;;;;4.85;89.66;99706.47;8318562;28;20038;-55
2023/01/19 15:30:29;;;;;;;25.65;11.32;;;;;;;4.79;89.92;99698.91;8320160;28;20059;-56
2023/01/19 15:34:30;;;;;;;24.58;10.20;;;;;;;4.75;89.61;99694.78;8322778;28;20065;-54
2023/01/19 15:38:30;;;;;;;24.48;10.65;;;;;;;4.69;89.28;99695.25;8320513;28;20041;-54
2023/01/19 15:42:32;;;;;;;23.50;10.13;;;;;;;4.66;88.71;99698.22;8322380;28;20116;-55
2023/01/19 15:46:32;;;;;;;18.45;8.65;;;;;;;4.64;88.63;99700.16;8318540;28;20049;-56
2023/01/19 15:50:37;;;;;;;17.00;8.70;;;;;;;4.59;89.22;99700.53;8317779;28;20068;-56
2023/01/19 15:54:37;;;;;;;;;;;;;;;4.58;89.41;99695.28;8321216;28;20478;-53
2023/01/19 15:58:37;;;;;;;23.75;9.13;;;;;;;4.53;89.47;99702.84;8321857;28;19971;-56
2023/01/19 16:02:38;;;;;;;19.58;9.93;;;;;;;4.53;88.92;99708.19;8322032;28;20337;-54
2023/01/19 16:06:39;;;;;;;17.90;8.45;;;;;;;4.48;88.79;99707.72;8320133;28;20041;-56
2023/01/19 16:10:40;;;;;;;16.73;8.13;;;;;;;4.46;89.00;99707.84;8321217;28;20050;-55
2023/01/19 16:14:41;;;;;;;15.13;7.90;;;;;;;4.43;88.46;99710.75;8321515;28;20057;-49
2023/01/19 16:18:42;;;;;;;22.65;7.57;;;;;;;4.36;88.21;99722.06;8321689;28;20038;-51
2023/01/19 16:22:42;;;;;;;18.38;7.20;;;;;;;4.23;89.25;99723.97;8321418;28;20049;-52
2023/01/19 16:26:43;;;;;;;12.25;6.45;;;;;;;4.13;89.56;99725.69;8320586;28;20042;-52
2023/01/19 16:30:43;;;;;;;15.98;7.22;;;;;;;4.05;90.38;99729.81;8314685;28;20428;-52
2023/01/19 16:34:44;;;;;;;16.67;7.57;;;;;;;4.02;89.96;99726.50;8301014;28;20033;-51
2023/01/19 16:38:44;;;;;;;16.58;8.52;;;;;;;4.07;90.00;99733.22;8320823;28;20038;-50
2023/01/19 16:42:46;;;;;;;15.73;6.47;;;;;;;4.06;89.17;99736.84;8307864;28;20068;-52
2023/01/19 16:46:48;;;;;;;13.30;5.85;;;;;;;3.97;90.66;99737.56;8303605;28;20033;-51
2023/01/19 16:50:58;;;;;;;19.00;7.13;;;;;;;3.85;91.00;99743.84;8303301;28;20566;-53
2023/01/19 16:54:58;;;;;;;19.27;11.15;;;;;;;3.79;90.18;99755.00;8295150;28;20128;-55
2023/01/19 16:58:59;;;;;;;35.65;14.63;;;;;;;3.65;91.10;99752.53;8311528;28;20482;-52
2023/01/19 17:02:59;;;;;;;17.33;8.85;;;;;;;3.70;90.80;99761.09;8300082;28;20403;-53
2023/01/19 17:06:59;;;;;;;13.50;7.35;;;;;;;3.76;91.12;99759.75;8305234;28;20427;-52
2023/01/19 17:11:06;;;;;;;24.55;11.20;;;;;;;3.80;91.48;99764.75;8302642;28;20049;-55
2023/01/19 17:15:07;;;;;;;16.75;7.45;;;;;;;3.78;91.16;99760.47;8305479;28;20509;-52
2023/01/19 17:19:13;;;;;;;15.65;7.70;;;;;;;3.73;92.72;99766.16;8311425;28;20399;-53
2023/01/19 17:23:14;;;;;;;15.63;7.35;;;;;;;3.72;92.90;99775.16;8318857;28;20462;-54
2023/01/19 17:27:15;;;;;;;18.30;7.85;;;;;;;3.69;92.57;99770.03;8306344;28;20064;-53
2023/01/19 17:31:17;;;;;;;21.83;9.20;;;;;;;3.69;91.63;99780.72;8299967;28;20463;-54
2023/01/19 17:35:18;;;;;;;24.42;10.73;;;;;;;3.81;92.46;99786.97;8320592;28;20459;-51
2023/01/19 17:39:18;;;;;;;30.40;11.60;;;;;;;3.74;92.89;99794.63;8310214;28;20045;-52
2023/01/19 17:43:19;;;;;;;13.05;7.10;;;;;;;3.64;94.16;99803.44;8303820;28;20044;-51
2023/01/19 17:47:24;;;;;;;12.07;5.97;;;;;;;3.49;95.25;99802.75;8307044;28;20367;-53
2023/01/19 17:51:26;;;;;;;8.43;5.43;;;;;;;3.54;95.02;99805.94;8315843;28;20499;-52
2023/01/19 17:55:26;;;;;;;9.82;5.47;;;;;;;3.56;94.79;99809.34;8320045;28;20053;-54
2023/01/19 17:59:27;;;;;;;9.55;5.45;;;;;;;3.53;96.20;99803.38;8321425;28;20514;-52
2023/01/19 18:03:27;;;;;;;9.20;5.60;;;;;;;3.65;95.76;99808.66;8320826;28;20052;-54
2023/01/19 18:07:28;;;;;;;11.88;6.25;;;;;;;3.56;95.38;99806.69;8311752;28;20067;-50
2023/01/19 18:11:29;;;;;;;14.10;6.60;;;;;;;3.60;96.36;99807.31;8292957;28;20474;-52
2023/01/19 18:15:29;;;;;;;12.80;6.13;;;;;;;3.35;97.49;99813.59;8311874;28;20042;-51
2023/01/19 18:19:30;;;;;;;15.73;5.78;;;;;;;3.24;99.88;99800.22;8308574;28;20045;-54
2023/01/19 18:23:31;;;;;;;13.65;6.35;;;;;;;3.28;98.96;99801.69;8316595;28;20053;-53
2023/01/19 18:27:31;;;;;;;16.67;9.90;;;;;;;3.28;98.98;99798.16;8297459;28;20038;-54
2023/01/19 18:31:31;;;;;;;20.33;9.27;;;;;;;3.27;99.47;99797.28;8316565;28;20049;-54
2023/01/19 18:35:32;;;;;;;16.90;10.13;;;;;;;3.25;99.58;99807.25;8317165;28;20087;-54
2023/01/19 18:39:32;;;;;;;18.88;11.63;;;;;;;3.22;99.82;99807.47;8293400;28;20041;-54
2023/01/19 18:43:33;;;;;;;19.25;9.73;;;;;;;3.08;99.16;99799.59;8313654;28;20495;-54
2023/01/19 18:47:34;;;;;;;22.15;12.10;;;;;;;3.00;100.00;99812.66;8326352;28;20041;-52
2023/01/19 18:51:35;;;;;;;18.48;8.52;;;;;;;2.95;100.00;99825.47;8318274;28;20052;-52
2023/01/19 18:55:36;;;;;;;21.08;9.52;;;;;;;2.94;100.00;99829.13;8326276;28;20469;-54
2023/01/19 18:59:36;;;;;;;12.70;7.57;;;;;;;2.70;100.00;99821.97;8326487;28;20045;-53
2023/01/19 19:03:37;;;;;;;13.98;7.38;;;;;;;2.60;100.00;99819.13;8324623;28;20045;-53
2023/01/19 19:07:37;;;;;;;18.80;9.38;;;;;;;2.72;100.00;99828.09;8303579;28;20407;-53
2023/01/19 19:11:38;;;;;;;22.15;11.43;;;;;;;2.76;100.00;99834.91;8319861;28;20046;-54
2023/01/19 19:15:38;;;;;;;26.38;11.90;;;;;;;2.97;100.00;99842.25;8324893;28;20502;-53
2023/01/19 19:19:39;;;;;;;35.17;15.55;;;;;;;3.11;100.00;99831.41;8323558;28;20048;-54